createdAt,value
2022-08-17T00:02:25.887Z,19.90
2022-08-17T00:04:55.348Z,19.90
2022-08-17T00:07:23.595Z,19.90
2022-08-17T00:09:51.040Z,19.90
2022-08-17T00:12:43.339Z,19.90
2022-08-17T00:15:13.071Z,19.80
2022-08-17T00:17:46.316Z,19.90
2022-08-17T00:20:14.421Z,19.80
2022-08-17T00:22:43.550Z,19.80
2022-08-17T00:25:16.797Z,19.70
2022-08-17T00:27:46.980Z,19.70
2022-08-17T00:30:14.970Z,19.70
2022-08-17T00:33:11.932Z,19.60
2022-08-17T00:35:35.067Z,19.60
2022-08-17T00:38:10.006Z,19.60
2022-08-17T00:40:44.942Z,19.60
2022-08-17T00:43:20.468Z,19.50
2022-08-17T00:45:53.013Z,19.50
2022-08-17T00:48:30.146Z,19.50
2022-08-17T00:51:11.895Z,19.50
2022-08-17T00:53:44.513Z,19.50
2022-08-17T00:56:21.230Z,19.50
2022-08-17T00:58:54.629Z,19.50
2022-08-17T01:01:23.816Z,19.50
2022-08-17T01:03:57.044Z,19.50
2022-08-17T01:06:28.436Z,19.60
2022-08-17T01:08:58.010Z,19.60
2022-08-17T01:11:28.842Z,19.60
2022-08-17T01:13:56.284Z,19.70
2022-08-17T01:16:30.613Z,19.80
2022-08-17T01:19:04.949Z,19.80
2022-08-17T01:22:08.519Z,19.90
2022-08-17T01:24:37.381Z,20.00
2022-08-17T01:27:10.718Z,20.00
2022-08-17T01:29:41.169Z,20.00
2022-08-17T01:32:09.132Z,20.00
2022-08-17T01:34:43.679Z,20.00
2022-08-17T01:37:19.052Z,20.00
2022-08-17T01:39:52.482Z,20.00
2022-08-17T01:42:38.705Z,20.00
2022-08-17T01:45:17.769Z,20.00
2022-08-17T01:47:50.791Z,20.00
2022-08-17T01:50:22.805Z,20.00
2022-08-17T01:52:54.384Z,20.00
2022-08-17T01:55:27.515Z,19.90
2022-08-17T01:57:55.362Z,19.90
2022-08-17T02:00:22.978Z,19.90
2022-08-17T02:02:51.456Z,19.80
2022-08-17T02:05:22.550Z,19.80
2022-08-17T02:07:59.675Z,19.80
2022-08-17T02:10:34.180Z,19.80
2022-08-17T02:13:03.935Z,19.80
2022-08-17T02:15:32.277Z,19.70
2022-08-17T02:18:05.759Z,19.70
2022-08-17T02:20:42.206Z,19.70
2022-08-17T02:23:12.985Z,19.70
2022-08-17T02:25:43.521Z,19.80
2022-08-17T02:28:11.506Z,19.80
2022-08-17T02:31:01.256Z,19.80
2022-08-17T02:33:42.847Z,19.80
2022-08-17T02:36:18.989Z,19.80
2022-08-17T02:38:50.014Z,19.80
2022-08-17T02:41:17.392Z,19.80
2022-08-17T02:43:45.533Z,19.80
2022-08-17T02:46:13.017Z,19.80
2022-08-17T02:48:42.447Z,19.90
2022-08-17T02:51:09.845Z,19.90
2022-08-17T02:53:37.145Z,19.90
2022-08-17T02:56:09.718Z,19.90
2022-08-17T02:58:40.700Z,19.90
2022-08-17T03:01:13.773Z,20.00
2022-08-17T03:03:45.505Z,20.00
2022-08-17T03:06:12.797Z,20.00
2022-08-17T03:08:43.452Z,20.00
2022-08-17T03:11:10.849Z,20.10
2022-08-17T03:13:38.184Z,20.10
2022-08-17T03:16:14.581Z,20.10
2022-08-17T03:18:44.502Z,20.10
2022-08-17T03:21:11.994Z,20.10
2022-08-17T03:23:41.317Z,20.00
2022-08-17T03:26:15.402Z,20.00
2022-08-17T03:28:43.801Z,20.00
2022-08-17T03:31:14.850Z,20.10
2022-08-17T03:33:42.715Z,20.00
2022-08-17T03:36:10.517Z,20.00
2022-08-17T03:38:41.200Z,20.00
2022-08-17T03:41:11.830Z,20.10
2022-08-17T03:43:42.302Z,20.10
2022-08-17T03:46:35.138Z,20.10
2022-08-17T03:49:25.638Z,20.20
2022-08-17T03:52:13.375Z,20.20
2022-08-17T03:55:01.326Z,20.20
2022-08-17T03:57:29.668Z,20.20
2022-08-17T03:59:57.196Z,20.30
2022-08-17T04:02:32.198Z,20.30
2022-08-17T04:05:02.809Z,20.30
2022-08-17T04:07:31.935Z,20.30
2022-08-17T04:10:00.540Z,20.30
2022-08-17T04:12:32.125Z,20.30
2022-08-17T04:15:09.754Z,20.40
2022-08-17T04:17:41.118Z,20.40
2022-08-17T04:20:08.655Z,20.40
2022-08-17T04:22:36.933Z,20.30
2022-08-17T04:25:17.413Z,20.30
2022-08-17T04:27:48.960Z,20.30
2022-08-17T04:30:16.452Z,20.20
2022-08-17T04:33:05.965Z,20.20
2022-08-17T04:35:52.554Z,20.20
2022-08-17T04:38:22.626Z,20.20
2022-08-17T04:41:12.355Z,20.20
2022-08-17T04:43:41.777Z,20.20
2022-08-17T04:46:19.096Z,20.30
2022-08-17T04:48:49.499Z,20.20
2022-08-17T04:51:32.613Z,20.20
2022-08-17T04:54:06.274Z,20.20
2022-08-17T04:56:34.664Z,20.10
2022-08-17T04:59:05.226Z,20.10
2022-08-17T05:01:34.674Z,20.00
2022-08-17T05:04:20.875Z,20.00
2022-08-17T05:06:55.504Z,20.00
2022-08-17T05:09:28.806Z,20.00
2022-08-17T05:12:02.205Z,20.00
2022-08-17T05:14:33.062Z,20.10
2022-08-17T05:17:04.144Z,20.00
2022-08-17T05:19:40.129Z,20.10
2022-08-17T05:22:07.495Z,20.10
2022-08-17T05:24:42.716Z,20.10
2022-08-17T05:27:21.592Z,20.10
2022-08-17T05:29:57.327Z,20.20
2022-08-17T05:32:38.185Z,20.20
2022-08-17T05:35:09.653Z,20.30
2022-08-17T05:37:36.956Z,20.40
2022-08-17T05:40:04.849Z,20.40
2022-08-17T05:42:37.035Z,20.60
2022-08-17T05:45:05.298Z,20.60
2022-08-17T05:47:32.525Z,20.60
2022-08-17T05:50:01.450Z,20.60
2022-08-17T05:52:35.071Z,20.70
2022-08-17T05:55:21.174Z,20.50
2022-08-17T05:58:09.917Z,20.60
2022-08-17T06:01:07.847Z,20.60
2022-08-17T06:03:56.764Z,20.60
2022-08-17T06:06:32.270Z,20.80
2022-08-17T06:09:25.753Z,20.80
2022-08-17T06:12:23.498Z,20.90
2022-08-17T06:15:02.966Z,20.90
2022-08-17T06:17:31.415Z,21.00
2022-08-17T06:20:04.402Z,21.10
2022-08-17T06:22:43.059Z,21.10
2022-08-17T06:25:18.991Z,21.10
2022-08-17T06:27:59.452Z,21.10
2022-08-17T06:30:59.610Z,21.10
2022-08-17T06:33:29.804Z,21.10
2022-08-17T06:36:25.536Z,21.10
2022-08-17T06:39:33.069Z,21.10
2022-08-17T06:43:04.105Z,21.10
2022-08-17T06:45:59.139Z,21.10
2022-08-17T06:48:41.090Z,21.10
2022-08-17T06:51:23.672Z,21.20
2022-08-17T06:54:20.309Z,21.20
2022-08-17T06:57:25.453Z,21.20
2022-08-17T07:00:05.146Z,21.20
2022-08-17T07:02:55.776Z,21.30
2022-08-17T07:05:51.861Z,21.40
2022-08-17T07:08:40.206Z,21.40
2022-08-17T07:11:18.859Z,21.40
2022-08-17T07:13:54.498Z,21.40
2022-08-17T07:16:46.576Z,21.40
2022-08-17T07:19:17.363Z,21.50
2022-08-17T07:22:20.289Z,21.60
2022-08-17T07:25:09.436Z,21.80
2022-08-17T07:27:45.596Z,21.90
2022-08-17T07:30:26.347Z,22.10
2022-08-17T08:02:17.761Z,23.00
2022-08-17T08:05:30.696Z,23.00
2022-08-17T08:08:29.200Z,23.10
2022-08-17T08:11:10.001Z,23.20
2022-08-17T08:13:45.259Z,23.30
2022-08-17T08:16:27.592Z,23.30
2022-08-17T08:19:02.168Z,23.30
2022-08-17T08:21:48.522Z,23.30
2022-08-17T08:24:36.861Z,23.30
2022-08-17T08:27:48.972Z,23.30
2022-08-17T08:30:21.671Z,23.20
2022-08-17T08:33:38.676Z,23.10
2022-08-17T08:37:15.892Z,23.10
2022-08-17T08:39:26.193Z,23.10
2022-08-17T08:42:08.713Z,23.10
2022-08-17T08:45:10.361Z,23.20
2022-08-17T08:47:55.943Z,23.10
2022-08-17T08:50:54.633Z,23.20
2022-08-17T08:53:44.748Z,23.20
2022-08-17T08:56:36.813Z,23.30
2022-08-17T08:59:23.683Z,23.40
2022-08-17T09:02:25.611Z,23.70
2022-08-17T09:05:18.066Z,24.20
2022-08-17T09:08:03.194Z,24.40
2022-08-17T09:10:52.160Z,24.40
2022-08-17T09:13:55.504Z,24.40
2022-08-17T09:16:41.698Z,24.40
2022-08-17T09:19:23.598Z,24.50
2022-08-17T09:22:17.590Z,24.50
2022-08-17T09:25:05.312Z,24.60
2022-08-17T09:27:46.607Z,24.60
2022-08-17T09:30:18.141Z,24.60
2022-08-17T09:32:50.308Z,24.70
2022-08-17T09:35:25.279Z,24.90
2022-08-17T09:38:32.323Z,25.20
2022-08-17T09:41:28.370Z,25.60
2022-08-17T09:44:22.943Z,25.60
2022-08-17T09:47:34.537Z,25.80
2022-08-17T09:50:13.586Z,25.70
2022-08-17T09:52:43.343Z,25.60
2022-08-17T09:55:13.891Z,25.70
2022-08-17T09:58:28.986Z,25.60
2022-08-17T10:01:40.120Z,25.40
2022-08-17T10:04:32.448Z,25.30
2022-08-17T10:07:10.714Z,25.30
2022-08-17T10:09:49.113Z,25.30
2022-08-17T10:12:30.444Z,25.20
2022-08-17T10:15:22.874Z,25.10
2022-08-17T10:18:07.656Z,25.20
2022-08-17T10:20:45.525Z,25.30
2022-08-17T10:47:19.215Z,25.50
2022-08-17T10:49:54.174Z,25.30
2022-08-17T10:52:26.510Z,25.30
2022-08-17T10:54:58.712Z,25.40
2022-08-17T11:05:27.711Z,25.70
2022-08-17T11:08:43.558Z,25.60
2022-08-17T11:11:51.117Z,25.60
2022-08-17T11:14:55.650Z,25.30
2022-08-17T11:17:41.780Z,25.20
2022-08-17T11:20:32.805Z,25.20
2022-08-17T11:23:42.314Z,25.20
2022-08-17T11:26:41.111Z,25.10
2022-08-17T11:29:24.927Z,25.20
2022-08-17T11:32:15.130Z,25.40
2022-08-17T12:17:40.863Z,26.90
2022-08-17T12:20:21.981Z,26.40
2022-08-17T12:23:20.673Z,26.00
2022-08-17T12:26:14.418Z,25.60
2022-08-17T12:28:47.587Z,25.30
2022-08-17T12:31:31.186Z,25.10
2022-08-17T12:34:00.576Z,25.00
2022-08-17T12:36:29.049Z,24.90
2022-08-17T12:39:12.235Z,25.00
2022-08-17T12:41:52.473Z,25.10
2022-08-17T12:44:32.758Z,25.10
2022-08-17T12:47:07.166Z,25.30
2022-08-17T12:49:37.212Z,25.30
2022-08-17T12:52:26.894Z,25.40
2022-08-17T12:55:07.442Z,25.50
2022-08-17T12:57:47.390Z,25.50
2022-08-17T13:00:25.590Z,25.50
2022-08-17T13:02:59.252Z,25.40
2022-08-17T13:05:28.273Z,25.30
2022-08-17T13:07:57.992Z,25.20
2022-08-17T13:10:33.390Z,25.20
2022-08-17T13:31:28.587Z,26.10
2022-08-17T13:34:16.104Z,25.90
2022-08-17T13:36:46.995Z,25.80
2022-08-17T13:39:25.279Z,25.80
2022-08-17T13:41:56.354Z,25.70
2022-08-17T13:44:39.780Z,25.60
2022-08-17T13:47:18.124Z,25.50
2022-08-17T13:49:49.090Z,25.50
2022-08-17T13:52:40.052Z,25.60
2022-08-17T13:55:19.831Z,25.70
2022-08-17T13:58:06.821Z,25.80
2022-08-17T14:00:36.607Z,25.80
2022-08-17T14:03:05.476Z,25.80
2022-08-17T14:05:34.022Z,25.80
2022-08-17T14:08:06.805Z,25.80
2022-08-17T14:10:36.735Z,25.80
2022-08-17T14:13:09.350Z,25.80
2022-08-17T14:15:55.024Z,25.80
2022-08-17T14:18:31.152Z,25.80
2022-08-17T14:21:12.069Z,25.80
2022-08-17T14:23:39.584Z,25.90
2022-08-17T14:26:06.933Z,25.90
2022-08-17T14:28:36.526Z,25.80
2022-08-17T14:31:05.383Z,25.70
2022-08-17T14:33:33.870Z,25.60
2022-08-17T14:36:01.373Z,26.50
2022-08-17T14:38:29.016Z,25.50
2022-08-17T14:41:00.422Z,25.60
2022-08-17T14:43:27.731Z,25.70
2022-08-17T14:46:00.174Z,25.70
2022-08-17T14:48:29.104Z,25.60
2022-08-17T14:50:59.784Z,25.50
2022-08-17T14:53:27.277Z,25.60
2022-08-17T14:55:55.592Z,25.80
2022-08-17T14:58:23.891Z,25.90
2022-08-17T15:00:52.686Z,25.80
2022-08-17T15:03:23.854Z,25.80
2022-08-17T15:05:54.166Z,25.70
2022-08-17T15:08:21.613Z,25.60
2022-08-17T15:10:54.538Z,25.60
2022-08-17T15:13:26.007Z,25.50
2022-08-17T15:15:54.008Z,25.30
2022-08-17T15:18:21.607Z,25.20
2022-08-17T15:20:53.298Z,25.10
2022-08-17T15:23:26.670Z,25.20
2022-08-17T15:25:55.086Z,25.20
2022-08-17T15:28:23.161Z,25.30
2022-08-17T15:30:55.134Z,25.30
2022-08-17T15:33:30.405Z,25.20
2022-08-17T15:36:03.784Z,25.20
2022-08-17T15:38:34.426Z,25.20
2022-08-17T15:41:07.531Z,25.10
2022-08-17T15:43:36.107Z,25.00
2022-08-17T15:46:15.222Z,25.00
2022-08-17T15:48:51.214Z,25.00
2022-08-17T15:51:26.101Z,25.00
2022-08-17T15:54:04.481Z,24.90
2022-08-17T15:56:50.232Z,24.90
2022-08-17T15:59:24.913Z,24.90
2022-08-17T16:02:29.914Z,25.00
2022-08-17T16:04:44.510Z,25.20
2022-08-17T16:07:17.506Z,25.10
2022-08-17T16:09:45.708Z,24.90
2022-08-17T16:12:19.216Z,24.90
2022-08-17T16:14:49.200Z,25.00
2022-08-17T16:17:39.777Z,24.90
2022-08-17T16:20:06.939Z,24.90
2022-08-17T16:22:41.579Z,24.90
2022-08-17T16:25:12.743Z,24.80
2022-08-17T16:27:43.910Z,24.80
2022-08-17T16:30:17.948Z,24.80
2022-08-17T16:32:51.881Z,24.90
2022-08-17T16:35:22.864Z,24.80
2022-08-17T16:37:57.352Z,24.70
2022-08-17T16:40:27.598Z,24.50
2022-08-17T16:42:55.939Z,24.50
2022-08-17T16:45:28.328Z,24.40
2022-08-17T16:47:59.250Z,24.30
2022-08-17T16:50:30.456Z,24.30
2022-08-17T16:53:10.911Z,24.30
2022-08-17T16:55:43.004Z,24.20
2022-08-17T16:58:10.418Z,24.20
2022-08-17T17:00:38.610Z,24.20
2022-08-17T17:03:19.955Z,24.20
2022-08-17T17:06:13.831Z,24.20
2022-08-17T17:08:55.636Z,24.20
2022-08-17T17:11:35.557Z,24.10
2022-08-17T17:14:07.365Z,24.00
2022-08-17T17:16:45.745Z,23.90
2022-08-17T17:19:52.914Z,23.80
2022-08-17T17:22:23.542Z,23.70
2022-08-17T17:25:12.084Z,23.60
2022-08-17T17:27:59.008Z,23.60
2022-08-17T17:30:39.077Z,23.50
2022-08-17T17:33:11.694Z,23.50
2022-08-17T17:35:51.916Z,23.50
2022-08-17T17:38:28.982Z,23.40
2022-08-17T17:41:08.794Z,23.40
2022-08-17T17:43:41.647Z,23.40
2022-08-17T17:46:27.386Z,23.30
2022-08-17T17:48:57.750Z,23.20
2022-08-17T17:52:06.525Z,23.20
2022-08-17T17:54:58.255Z,23.10
2022-08-17T17:57:44.313Z,23.00
2022-08-17T18:00:22.321Z,23.00
2022-08-17T18:03:01.626Z,22.90
2022-08-17T18:05:39.032Z,22.90
2022-08-17T18:08:40.545Z,22.80
2022-08-17T18:11:24.953Z,22.70
2022-08-17T18:14:17.464Z,22.60
2022-08-17T18:16:58.428Z,22.60
2022-08-17T18:19:32.545Z,22.50
2022-08-17T18:22:14.109Z,22.50
2022-08-17T18:24:48.014Z,22.50
2022-08-17T18:27:37.934Z,22.40
2022-08-17T18:30:30.053Z,22.30
2022-08-17T18:33:26.699Z,22.20
2022-08-17T18:36:01.688Z,22.10
2022-08-17T18:38:48.031Z,22.00
2022-08-17T18:41:30.637Z,21.90
2022-08-17T18:44:19.539Z,21.80
2022-08-17T18:47:13.938Z,21.70
2022-08-17T18:49:43.379Z,21.60
2022-08-17T18:52:28.620Z,21.50
2022-08-17T18:55:05.118Z,21.40
2022-08-17T18:57:43.591Z,21.30
2022-08-17T19:00:26.942Z,21.20
2022-08-17T19:03:01.324Z,21.10
2022-08-17T19:05:41.241Z,21.10
2022-08-17T19:08:30.071Z,21.00
2022-08-17T19:11:31.998Z,20.90
2022-08-17T19:14:17.066Z,20.80
2022-08-17T19:17:06.375Z,20.80
2022-08-17T19:19:53.611Z,20.70
2022-08-17T19:22:42.260Z,20.70
2022-08-17T19:25:21.835Z,20.60
2022-08-17T19:27:57.702Z,20.60
2022-08-17T19:30:35.859Z,20.50
2022-08-17T19:33:08.929Z,20.40
2022-08-17T19:35:59.569Z,20.40
2022-08-17T19:38:53.606Z,20.30
2022-08-17T19:41:33.307Z,20.30
2022-08-17T19:44:27.344Z,20.30
2022-08-17T19:47:30.726Z,20.20
2022-08-17T19:50:21.392Z,20.20
2022-08-17T19:53:07.609Z,20.10
2022-08-17T19:56:20.311Z,20.10
2022-08-17T19:59:08.379Z,20.00
2022-08-17T20:01:44.566Z,20.00
2022-08-17T20:04:43.742Z,20.00
2022-08-17T20:07:45.072Z,19.90
2022-08-17T20:10:30.749Z,19.90
2022-08-17T20:13:05.525Z,19.80
2022-08-17T20:15:39.136Z,19.80
2022-08-17T20:18:44.077Z,19.80
2022-08-17T20:21:29.382Z,19.80
2022-08-17T20:24:18.195Z,19.80
2022-08-17T20:27:13.948Z,19.70
2022-08-17T20:30:04.378Z,19.70
2022-08-17T20:32:56.432Z,19.70
2022-08-17T20:35:34.233Z,19.60
2022-08-17T20:38:43.411Z,19.60
2022-08-17T20:41:22.474Z,19.60
2022-08-17T20:43:59.459Z,19.60
2022-08-17T20:47:13.217Z,19.50
2022-08-17T20:49:45.145Z,19.50
2022-08-17T20:52:42.629Z,19.50
2022-08-17T20:55:52.294Z,19.40
2022-08-17T20:58:32.258Z,19.40
2022-08-17T21:01:26.459Z,19.40
2022-08-17T21:04:03.410Z,19.30
2022-08-17T21:06:34.157Z,19.30
2022-08-17T21:09:13.584Z,19.30
2022-08-17T21:12:03.924Z,19.30
2022-08-17T21:14:51.167Z,19.30
2022-08-17T21:17:56.617Z,19.30
2022-08-17T21:21:17.275Z,19.20
2022-08-17T21:24:29.193Z,19.30
2022-08-17T21:27:18.201Z,19.20
2022-08-17T21:30:21.124Z,19.20
2022-08-17T21:33:14.605Z,19.10
2022-08-17T21:36:12.887Z,19.10
2022-08-17T21:38:58.574Z,19.00
2022-08-17T21:41:35.015Z,19.00
2022-08-17T21:44:33.150Z,19.00
2022-08-17T21:47:26.376Z,19.00
2022-08-17T21:49:55.186Z,18.90
2022-08-17T21:52:34.270Z,18.90
2022-08-17T21:55:03.338Z,18.80
2022-08-17T21:57:38.625Z,18.90
2022-08-17T22:00:17.142Z,18.80
2022-08-17T22:03:01.337Z,18.80
2022-08-17T22:05:40.522Z,18.80
2022-08-17T22:08:22.053Z,18.80
2022-08-17T22:10:56.971Z,18.70
2022-08-17T22:13:29.679Z,20.20
2022-08-17T22:16:15.533Z,18.80
2022-08-17T22:19:07.622Z,18.80
2022-08-17T22:21:39.220Z,18.80
2022-08-17T22:24:24.903Z,18.70
2022-08-17T22:27:13.133Z,18.70
2022-08-17T22:30:33.423Z,18.70
2022-08-17T22:33:33.489Z,18.70
2022-08-17T22:36:25.593Z,18.60
2022-08-17T22:39:28.482Z,18.60
2022-08-17T22:42:02.592Z,18.60
2022-08-17T22:44:48.203Z,18.60
2022-08-17T22:47:22.903Z,18.60
2022-08-17T22:49:58.006Z,18.60
2022-08-17T22:53:01.910Z,18.60
2022-08-17T22:55:52.234Z,18.60
2022-08-17T22:58:42.778Z,18.60
2022-08-17T23:01:35.813Z,18.60
2022-08-17T23:04:12.678Z,18.60
2022-08-17T23:06:44.098Z,18.60
2022-08-17T23:09:14.879Z,18.60
2022-08-17T23:11:53.650Z,18.60
2022-08-17T23:14:32.583Z,18.60
2022-08-17T23:17:03.475Z,18.50
2022-08-17T23:19:38.027Z,18.50
2022-08-17T23:22:10.607Z,18.60
2022-08-17T23:24:48.726Z,18.60
2022-08-17T23:27:20.704Z,18.70
2022-08-17T23:29:50.730Z,18.70
2022-08-17T23:32:34.607Z,18.80
2022-08-17T23:35:07.184Z,18.90
2022-08-17T23:37:41.983Z,18.90
2022-08-17T23:40:15.092Z,18.90
2022-08-17T23:42:46.703Z,18.90
2022-08-17T23:45:22.641Z,19.00
2022-08-17T23:47:52.998Z,19.00
2022-08-17T23:50:25.455Z,19.00
2022-08-17T23:53:05.738Z,19.00
2022-08-17T23:55:37.561Z,19.00
2022-08-17T23:58:05.632Z,19.10
